Time;durP1;ratioP1;P1;durP2;ratioP2;P2;SDS_P1;SDS_P2;PMS_P1;PMS_P2;Temp;Humidity;BMP_temperature;BMP_pressure;BME280_temperature;BME280_humidity;BME280_pressure;Samples;Min_cycle;Max_cycle;Signal;HPM_P1;HPM_P2
2023/03/26 00:01:22;;;;;;;7.57;5.45;;;;;;;2.28;71.86;96526.16;6296275;28;20044;-69
2023/03/26 00:04:27;;;;;;;8.00;6.25;;;;;;;2.37;71.46;96526.66;6296002;28;20044;-69
2023/03/26 00:07:28;;;;;;;8.15;5.88;;;;;;;2.52;71.08;96521.78;6295528;28;20572;-69
2023/03/26 00:10:35;;;;;;;7.65;5.30;;;;;;;2.57;70.91;96520.69;6296046;28;20040;-68
2023/03/26 00:13:40;;;;;;;7.45;5.18;;;;;;;2.61;70.24;96516.25;6295802;28;20453;-68
2023/03/26 00:16:41;;;;;;;6.43;5.20;;;;;;;2.38;70.78;96509.34;6295834;28;20044;-67
2023/03/26 00:19:42;;;;;;;6.40;4.82;;;;;;;2.40;71.05;96523.09;6294954;28;20052;-69
2023/03/26 00:22:54;;;;;;;6.72;4.90;;;;;;;2.53;70.94;96534.72;6295819;28;20095;-68
2023/03/26 00:25:56;;;;;;;5.25;3.80;;;;;;;2.45;71.38;96531.56;6294771;28;20147;-68
2023/03/26 00:29:02;;;;;;;5.45;4.60;;;;;;;2.51;70.96;96535.69;6295590;28;20060;-69
2023/03/26 00:32:04;;;;;;;7.20;4.28;;;;;;;2.47;71.56;96524.56;6294514;28;20072;-68
2023/03/26 00:35:06;;;;;;;6.50;4.47;;;;;;;2.47;71.47;96529.75;6294712;28;20147;-68
2023/03/26 00:38:10;;;;;;;6.55;4.53;;;;;;;2.45;71.66;96526.38;6294426;28;20049;-69
2023/03/26 00:41:21;;;;;;;5.25;4.50;;;;;;;2.57;71.71;96522.44;6294468;28;20048;-69
2023/03/26 00:44:25;;;;;;;6.68;4.38;;;;;;;2.53;71.54;96537.31;6295033;28;20420;-67
2023/03/26 00:47:27;;;;;;;4.72;3.70;;;;;;;2.56;71.66;96529.41;6294400;28;20047;-68
2023/03/26 00:50:29;;;;;;;6.13;4.50;;;;;;;2.66;71.76;96535.94;6294279;28;20047;-68
2023/03/26 00:53:37;;;;;;;5.35;4.28;;;;;;;2.65;71.32;96531.63;6294168;28;20057;-68
2023/03/26 00:56:39;;;;;;;4.75;4.10;;;;;;;2.64;71.75;96535.16;6294107;28;20055;-69
2023/03/26 00:59:42;;;;;;;5.15;4.13;;;;;;;2.64;71.55;96531.72;6293911;28;20126;-68
2023/03/26 01:02:46;;;;;;;7.77;5.20;;;;;;;2.66;71.34;96525.56;6294012;28;20045;-68
2023/03/26 01:05:55;;;;;;;4.90;4.20;;;;;;;2.63;71.65;96530.00;6294037;28;20447;-68
2023/03/26 01:09:03;;;;;;;7.75;5.05;;;;;;;2.56;71.85;96539.78;6294796;28;20040;-68
2023/03/26 01:12:07;;;;;;;6.28;4.28;;;;;;;2.57;72.06;96531.06;6294124;28;20043;-68
2023/03/26 01:15:12;;;;;;;;;;;;;;;2.71;71.74;96533.16;6294238;28;20041;-68
2023/03/26 01:18:25;;;;;;;6.05;4.63;;;;;;;2.79;71.86;96540.66;6294434;28;19920;-68
2023/03/26 01:21:33;;;;;;;8.30;5.40;;;;;;;2.99;71.91;96538.09;6294352;28;20436;-69
2023/03/26 01:24:45;;;;;;;8.38;5.93;;;;;;;3.02;71.67;96542.31;6294253;28;20103;-68
2023/03/26 01:27:49;;;;;;;8.30;5.90;;;;;;;3.03;71.76;96549.22;6294556;28;20485;-68
2023/03/26 01:31:29;;;;;;;7.10;5.35;;;;;;;3.08;71.66;96557.66;6293312;28;20048;-68
2023/03/26 01:34:48;;;;;;;7.55;5.90;;;;;;;3.12;71.46;96554.91;6293454;28;20460;-68
2023/03/26 01:38:09;;;;;;;6.97;5.53;;;;;;;3.11;71.62;96558.41;6293618;28;20044;-68
2023/03/26 01:41:24;;;;;;;10.05;6.45;;;;;;;3.22;71.49;96557.13;6293272;28;20051;-69
2023/03/26 01:44:43;;;;;;;8.80;6.45;;;;;;;3.24;71.42;96563.09;6294431;28;20500;-68
2023/03/26 01:47:49;;;;;;;10.90;7.03;;;;;;;3.22;71.58;96559.72;6294156;28;20040;-68
2023/03/26 01:50:57;;;;;;;13.32;8.68;;;;;;;3.26;71.50;96554.34;6294061;28;20036;-69
2023/03/26 01:54:06;;;;;;;8.20;6.18;;;;;;;3.34;71.48;96560.06;6277241;28;20055;-69
2023/03/26 01:57:07;;;;;;;6.53;5.38;;;;;;;3.40;71.52;96571.13;6298443;28;20055;-69
2023/03/26 02:00:39;;;;;;;7.57;6.25;;;;;;;3.45;71.63;96576.97;6299130;28;20045;-69
2023/03/26 02:04:07;;;;;;;9.38;6.80;;;;;;;3.63;71.24;96572.78;6299058;28;20041;-69
2023/03/26 02:07:20;;;;;;;8.52;6.68;;;;;;;3.65;71.04;96578.75;6298137;28;20408;-69
2023/03/26 02:10:29;;;;;;;9.52;6.55;;;;;;;3.89;70.27;96572.50;6298728;28;20040;-69
2023/03/26 02:13:31;;;;;;;9.27;6.60;;;;;;;3.82;70.53;96560.66;6298584;28;20080;-69
2023/03/26 02:16:34;;;;;;;9.30;6.90;;;;;;;3.95;70.52;96567.03;6298597;28;20040;-68
2023/03/26 02:19:41;;;;;;;8.57;6.60;;;;;;;3.96;70.52;96565.25;6298411;28;20496;-68
2023/03/26 02:22:46;;;;;;;8.18;6.60;;;;;;;4.00;70.22;96565.06;6280979;28;20044;-67
2023/03/26 02:25:50;;;;;;;7.20;5.72;;;;;;;4.19;69.87;96566.84;6298532;28;20481;-67
2023/03/26 02:28:51;;;;;;;8.45;6.40;;;;;;;4.21;70.15;96562.44;6297992;28;20048;-69
2023/03/26 02:31:55;;;;;;;6.88;6.03;;;;;;;4.25;69.87;96564.00;6297392;28;20449;-68
2023/03/26 02:35:01;;;;;;;7.38;6.38;;;;;;;4.34;69.37;96568.78;6298413;28;20040;-69
2023/03/26 02:38:08;;;;;;;6.82;5.60;;;;;;;4.51;69.13;96560.22;6298463;28;20040;-69
2023/03/26 02:41:13;;;;;;;7.00;5.93;;;;;;;4.62;68.42;96562.34;6298070;28;20413;-68
2023/03/26 02:44:20;;;;;;;6.72;5.38;;;;;;;4.60;68.67;96564.16;6297990;28;20068;-68
2023/03/26 02:47:24;;;;;;;6.93;6.05;;;;;;;4.83;68.01;96566.53;6297107;28;20076;-69
2023/03/26 02:50:31;;;;;;;6.55;5.43;;;;;;;5.00;67.54;96572.72;6297864;28;20044;-69
2023/03/26 02:53:40;;;;;;;8.25;6.38;;;;;;;5.21;66.69;96561.28;6297624;28;20048;-68
2023/03/26 02:56:41;;;;;;;6.95;5.63;;;;;;;5.25;66.56;96572.41;6296788;28;20532;-69
2023/03/26 02:59:45;;;;;;;7.88;5.88;;;;;;;5.39;66.23;96569.97;6296927;28;20036;-69
2023/03/26 03:02:46;;;;;;;7.72;6.07;;;;;;;5.36;66.11;96576.16;6296970;28;20566;-68
2023/03/26 03:05:51;;;;;;;6.55;5.15;;;;;;;5.53;65.39;96571.88;6296719;28;20477;-69
2023/03/26 03:08:55;;;;;;;7.10;5.65;;;;;;;5.60;65.46;96575.88;6278826;28;20072;-69
2023/03/26 03:12:00;;;;;;;6.47;5.47;;;;;;;5.67;64.93;96577.25;6297204;28;20135;-70
2023/03/26 03:15:02;;;;;;;6.85;5.30;;;;;;;5.50;65.78;96564.22;6297321;28;20036;-69
2023/03/26 03:18:04;;;;;;;7.30;5.63;;;;;;;5.47;66.08;96578.25;6296709;28;20535;-68
2023/03/26 03:21:07;;;;;;;6.90;5.18;;;;;;;5.50;65.97;96572.03;6296336;28;20052;-68
2023/03/26 03:24:12;;;;;;;6.70;5.40;;;;;;;5.46;65.84;96580.94;6279230;28;20128;-69
2023/03/26 03:27:14;;;;;;;7.22;5.80;;;;;;;5.29;66.46;96579.97;6296873;28;20059;-70
2023/03/26 03:30:17;;;;;;;6.57;5.07;;;;;;;5.50;65.60;96578.09;6296901;28;20044;-69
2023/03/26 03:33:22;;;;;;;6.88;5.80;;;;;;;5.42;66.30;96584.63;6296371;28;20044;-69
2023/03/26 03:36:26;;;;;;;7.15;5.90;;;;;;;5.30;66.34;96576.47;6295884;28;20045;-69
2023/03/26 03:39:28;;;;;;;6.15;5.25;;;;;;;5.23;66.68;96577.66;6296844;28;20043;-68
2023/03/26 03:42:29;;;;;;;10.23;6.88;;;;;;;5.03;67.30;96572.56;6296675;28;20040;-69
2023/03/26 03:45:34;;;;;;;5.53;4.88;;;;;;;4.97;67.73;96578.09;6296630;28;20683;-69
2023/03/26 03:48:38;;;;;;;5.45;4.93;;;;;;;5.21;66.98;96582.13;6295803;28;20045;-68
2023/03/26 03:51:39;;;;;;;7.05;5.13;;;;;;;5.29;66.62;96574.75;6295119;28;20048;-70
2023/03/26 03:54:41;;;;;;;6.80;5.22;;;;;;;5.36;66.66;96586.59;6296100;28;20040;-70
2023/03/26 03:57:43;;;;;;;6.88;5.47;;;;;;;5.36;66.71;96578.78;6278168;28;20174;-69
2023/03/26 04:00:52;;;;;;;;;;;;;;;5.44;66.87;96577.56;6296376;28;20053;-68
2023/03/26 04:03:57;;;;;;;8.23;5.70;;;;;;;5.37;67.08;96583.06;6295901;28;19998;-68
2023/03/26 04:07:01;;;;;;;7.70;5.30;;;;;;;5.52;66.73;96585.84;6277662;28;20532;-69
2023/03/26 04:10:05;;;;;;;5.80;5.13;;;;;;;5.70;66.39;96587.56;6294438;28;20052;-69
2023/03/26 04:13:07;;;;;;;5.43;4.88;;;;;;;5.73;66.04;96578.72;6295013;28;20052;-68
2023/03/26 04:16:14;;;;;;;6.47;4.70;;;;;;;5.83;66.14;96586.03;6295290;28;20044;-68
2023/03/26 04:19:17;;;;;;;6.20;5.05;;;;;;;5.88;66.04;96583.16;6295459;28;20040;-68
2023/03/26 04:22:22;;;;;;;5.90;4.90;;;;;;;5.98;66.00;96591.41;6295627;28;20036;-68
2023/03/26 04:25:29;;;;;;;6.85;5.40;;;;;;;6.18;65.02;96586.00;6295658;28;20520;-69
2023/03/26 04:28:35;;;;;;;6.47;4.85;;;;;;;6.39;64.74;96598.88;6294825;28;20497;-69
2023/03/26 04:31:41;;;;;;;5.05;4.40;;;;;;;6.55;64.37;96598.91;6294576;28;20135;-68
2023/03/26 04:34:46;;;;;;;6.10;5.13;;;;;;;6.67;63.23;96598.25;6295290;28;20457;-68
2023/03/26 04:37:51;;;;;;;4.80;3.97;;;;;;;6.52;63.31;96579.00;6294485;28;20524;-69
2023/03/26 04:40:59;;;;;;;5.40;4.07;;;;;;;6.77;62.63;96601.22;6295388;28;20040;-68
2023/03/26 04:44:03;;;;;;;6.20;4.35;;;;;;;6.51;64.02;96599.09;6294833;28;20052;-69
2023/03/26 04:47:07;;;;;;;7.00;4.25;;;;;;;6.67;63.31;96591.25;6295214;28;20044;-69
2023/03/26 04:50:10;;;;;;;5.75;4.15;;;;;;;6.67;63.56;96588.63;6293732;28;20052;-68
2023/03/26 04:53:16;;;;;;;4.45;3.75;;;;;;;6.78;62.92;96608.13;6294906;28;20056;-68
2023/03/26 04:56:31;;;;;;;5.47;4.00;;;;;;;6.83;62.83;96598.28;6294976;28;20497;-68
2023/03/26 04:59:35;;;;;;;4.53;3.90;;;;;;;6.75;63.30;96596.91;6294416;28;20057;-69
2023/03/26 05:02:40;;;;;;;5.43;3.88;;;;;;;6.81;63.22;96605.34;6294623;28;20048;-69
2023/03/26 05:05:44;;;;;;;6.22;3.75;;;;;;;6.88;62.95;96597.09;6293884;28;20441;-68
2023/03/26 05:08:45;;;;;;;5.18;4.15;;;;;;;6.87;62.80;96597.16;6293576;28;20091;-69
2023/03/26 05:11:49;;;;;;;4.95;4.10;;;;;;;6.81;63.26;96615.81;6294745;28;20040;-69
2023/03/26 05:14:55;;;;;;;5.22;4.15;;;;;;;6.92;62.99;96603.84;6294606;28;20045;-68
2023/03/26 05:17:59;;;;;;;4.72;3.58;;;;;;;7.04;61.97;96599.69;6276542;28;20033;-69
2023/03/26 05:21:03;;;;;;;4.45;3.85;;;;;;;7.01;62.24;96606.88;6294334;28;20048;-68
2023/03/26 05:24:10;;;;;;;4.90;4.20;;;;;;;6.94;62.42;96606.38;6294323;28;20048;-69
2023/03/26 05:27:19;;;;;;;3.90;3.40;;;;;;;7.09;62.71;96610.75;6294405;28;20032;-69
2023/03/26 05:30:23;;;;;;;5.10;4.32;;;;;;;7.26;61.98;96614.22;6294463;28;20044;-69
2023/03/26 05:33:24;;;;;;;5.03;3.97;;;;;;;7.34;61.47;96619.88;6292890;28;20052;-69
2023/03/26 05:36:29;;;;;;;7.22;4.47;;;;;;;7.53;60.86;96622.28;6294240;28;20501;-69
2023/03/26 05:39:40;;;;;;;4.40;4.00;;;;;;;10.64;55.77;96618.53;6294397;28;20040;-70
2023/03/26 05:43:04;;;;;;;4.75;3.30;;;;;;;15.62;43.23;96623.25;6293984;28;20429;-71
2023/03/26 05:46:09;;;;;;;2.80;2.50;;;;;;;18.93;35.93;96628.00;6294472;28;20118;-69
2023/03/26 05:49:13;;;;;;;3.38;2.75;;;;;;;21.30;32.43;96632.91;6293370;28;20052;-68
2023/03/26 05:52:19;;;;;;;3.70;2.72;;;;;;;22.85;28.13;96621.25;6293995;28;20052;-69
2023/03/26 05:55:20;;;;;;;2.53;2.03;;;;;;;24.56;26.40;96630.88;6293364;28;20071;-69
2023/03/26 05:58:50;;;;;;;3.25;2.30;;;;;;;25.63;24.76;96626.25;6293513;28;20081;-71
2023/03/26 06:01:56;;;;;;;2.40;2.20;;;;;;;26.79;22.34;96627.00;6288849;28;20483;-69
2023/03/26 06:05:04;;;;;;;3.85;2.20;;;;;;;26.74;22.69;96621.38;6293809;28;20048;-68
2023/03/26 06:08:06;;;;;;;2.55;2.20;;;;;;;28.38;20.84;96622.19;6292658;28;20059;-69
2023/03/26 06:11:07;;;;;;;2.27;1.83;;;;;;;29.39;19.66;96609.53;6293097;28;20141;-69
2023/03/26 06:14:08;;;;;;;2.33;1.73;;;;;;;30.42;18.55;96616.81;6292616;28;20429;-69
2023/03/26 06:17:12;;;;;;;3.78;2.05;;;;;;;31.47;18.21;96615.31;6293172;28;20131;-69
2023/03/26 06:20:17;;;;;;;2.10;1.67;;;;;;;33.03;16.59;96604.16;6293371;28;20265;-69
2023/03/26 06:23:22;;;;;;;4.22;2.00;;;;;;;32.76;15.87;96600.44;6293855;28;20048;-69
2023/03/26 06:26:23;;;;;;;3.97;1.90;;;;;;;32.31;16.07;96604.00;6292731;28;20095;-69
2023/03/26 06:29:29;;;;;;;2.85;1.83;;;;;;;32.07;16.23;96593.19;6275604;28;20036;-69
2023/03/26 06:32:34;;;;;;;1.60;1.50;;;;;;;32.29;16.29;96600.66;6275721;28;20048;-69
2023/03/26 06:35:41;;;;;;;4.63;1.73;;;;;;;33.24;15.90;96601.78;6292890;28;20052;-68
2023/03/26 06:38:49;;;;;;;1.50;1.40;;;;;;;35.33;14.49;96610.59;6293828;28;20048;-69
2023/03/26 06:41:59;;;;;;;1.90;1.73;;;;;;;36.35;13.18;96605.63;6297350;28;20502;-70
2023/03/26 06:45:02;;;;;;;2.20;1.50;;;;;;;35.86;13.92;96608.72;6297565;28;20355;-69
2023/03/26 06:48:08;;;;;;;2.33;1.75;;;;;;;35.18;14.13;96597.66;6297610;28;20044;-69
2023/03/26 06:51:15;;;;;;;2.20;1.55;;;;;;;35.84;13.68;96600.81;6297309;28;20056;-68
2023/03/26 06:54:19;;;;;;;2.05;1.20;;;;;;;36.90;13.01;96595.84;6296402;28;20135;-69
2023/03/26 06:57:29;;;;;;;9.30;3.17;;;;;;;37.27;12.30;96594.75;6296942;28;20048;-69
2023/03/26 07:00:37;;;;;;;3.05;1.67;;;;;;;37.51;12.07;96603.22;6297621;28;20078;-69
2023/03/26 07:03:53;;;;;;;1.77;1.55;;;;;;;36.71;12.46;96590.09;6279807;28;20044;-70
2023/03/26 07:07:11;;;;;;;1.90;1.50;;;;;;;36.23;12.81;96591.34;6281344;28;20044;-68
2023/03/26 07:10:15;;;;;;;2.05;1.85;;;;;;;36.28;12.87;96589.44;6296446;28;20052;-69
2023/03/26 07:13:21;;;;;;;2.53;1.30;;;;;;;36.34;12.46;96595.75;6296119;28;20049;-69
2023/03/26 07:16:30;;;;;;;3.65;1.67;;;;;;;37.40;12.46;96593.34;6297048;28;20131;-70
2023/03/26 07:19:38;;;;;;;2.75;1.48;;;;;;;38.00;12.09;96590.72;6297026;28;20069;-69
2023/03/26 07:22:42;;;;;;;2.88;1.55;;;;;;;37.71;11.65;96572.16;6296960;28;20414;-69
2023/03/26 07:25:47;;;;;;;2.35;1.70;;;;;;;38.28;11.85;96587.28;6296950;28;20044;-68
2023/03/26 07:29:21;;;;;;;2.17;1.58;;;;;;;39.21;10.83;96577.25;6297079;28;20040;-68
2023/03/26 07:32:33;;;;;;;4.57;2.28;;;;;;;38.47;11.39;96583.88;6296891;28;20044;-70
2023/03/26 07:36:08;;;;;;;2.80;1.77;;;;;;;37.63;11.64;96584.53;6296763;28;20599;-68
2023/03/26 07:39:33;;;;;;;3.65;1.92;;;;;;;36.94;12.07;96580.47;6296608;28;20494;-69
2023/03/26 07:42:56;;;;;;;2.90;1.75;;;;;;;37.07;11.78;96568.97;6296407;28;20048;-68
2023/03/26 07:45:57;;;;;;;2.78;1.83;;;;;;;36.60;12.08;96570.09;6296798;28;20051;-69
2023/03/26 07:49:08;;;;;;;3.25;2.10;;;;;;;36.22;12.61;96573.28;6296798;28;20110;-68
2023/03/26 07:52:15;;;;;;;1.80;1.70;;;;;;;35.89;12.75;96569.88;6295245;28;20141;-68
2023/03/26 07:55:18;;;;;;;2.92;1.70;;;;;;;35.51;12.96;96552.72;6277706;28;20098;-69
2023/03/26 07:58:31;;;;;;;2.40;1.70;;;;;;;34.90;13.40;96557.78;6295594;28;20101;-69
2023/03/26 08:01:40;;;;;;;2.30;2.10;;;;;;;33.96;14.22;96563.44;6296233;28;20130;-70
2023/03/26 08:05:27;;;;;;;2.87;1.60;;;;;;;33.82;14.13;96572.28;6296325;28;20045;-69
2023/03/26 08:08:28;;;;;;;2.08;1.88;;;;;;;33.33;14.44;96559.34;6246288;28;20424;-69
2023/03/26 08:11:37;;;;;;;1.95;1.75;;;;;;;33.36;14.36;96567.03;6295535;28;20119;-69
2023/03/26 08:14:43;;;;;;;3.15;1.88;;;;;;;32.90;14.84;96558.16;6294605;28;20049;-69
2023/03/26 08:17:50;;;;;;;1.65;1.55;;;;;;;33.01;14.75;96560.00;6295614;28;20040;-69
2023/03/26 08:21:16;;;;;;;2.90;2.08;;;;;;;33.21;14.82;96564.09;6295437;28;20430;-69
2023/03/26 08:24:42;;;;;;;3.45;2.13;;;;;;;32.55;15.09;96559.22;6295053;28;20044;-70
2023/03/26 08:28:04;;;;;;;1.95;1.67;;;;;;;33.60;14.50;96562.19;6295463;28;20047;-70
2023/03/26 08:31:10;;;;;;;1.75;1.55;;;;;;;33.50;14.61;96568.31;6295490;28;20033;-69
2023/03/26 08:34:16;;;;;;;2.38;1.73;;;;;;;32.52;14.97;96551.53;6278039;28;20044;-69
2023/03/26 08:37:20;;;;;;;1.73;1.60;;;;;;;33.84;14.41;96551.84;6294726;28;20501;-69
2023/03/26 08:41:00;;;;;;;5.30;1.83;;;;;;;34.37;14.20;96552.97;6295172;28;20118;-69
2023/03/26 08:44:18;;;;;;;2.70;2.13;;;;;;;34.32;14.14;96542.00;6293160;28;20060;-69
2023/03/26 08:47:49;;;;;;;3.33;2.33;;;;;;;33.84;14.38;96540.91;6294936;28;20074;-70
2023/03/26 08:50:56;;;;;;;3.55;1.80;;;;;;;34.76;13.83;96539.09;6293959;28;20048;-69
2023/03/26 08:54:37;;;;;;;1.95;1.80;;;;;;;35.63;13.32;96547.88;6294778;28;20040;-70
2023/03/26 08:58:21;;;;;;;3.45;2.00;;;;;;;35.29;13.29;96550.97;6294844;28;20040;-70
2023/03/26 09:01:44;;;;;;;4.10;2.38;;;;;;;34.30;14.03;96548.78;6293653;28;20051;-69
2023/03/26 09:05:03;;;;;;;2.60;2.00;;;;;;;33.70;14.69;96539.66;6293079;28;20063;-69
2023/03/26 09:08:40;;;;;;;5.20;3.53;;;;;;;34.91;13.99;96532.94;6293936;28;20044;-69
2023/03/26 09:11:44;;;;;;;3.83;2.53;;;;;;;35.26;13.52;96537.00;6246014;28;20458;-69
2023/03/26 09:15:20;;;;;;;4.07;2.00;;;;;;;34.18;14.39;96535.31;6294411;28;20043;-69
2023/03/26 09:18:55;;;;;;;4.43;2.13;;;;;;;33.12;15.25;96538.31;6272772;28;20055;-70
2023/03/26 09:22:11;;;;;;;3.13;1.95;;;;;;;32.29;15.95;96540.78;6294344;28;20052;-69
2023/03/26 09:25:32;;;;;;;2.28;1.65;;;;;;;32.90;15.60;96547.25;6293694;28;20501;-69
2023/03/26 09:29:11;;;;;;;1.90;1.70;;;;;;;34.61;14.03;96555.38;6293435;28;20117;-69
2023/03/26 09:32:35;;;;;;;2.28;1.90;;;;;;;37.23;12.92;96561.56;6294380;28;20040;-69
2023/03/26 09:35:55;;;;;;;2.72;1.67;;;;;;;38.76;11.62;96565.53;6293641;28;20532;-70
2023/03/26 09:39:13;;;;;;;2.33;1.80;;;;;;;39.40;11.61;96565.50;6294298;28;20040;-69
2023/03/26 09:42:26;;;;;;;3.15;1.60;;;;;;;39.72;10.99;96571.19;6294040;28;20087;-67
2023/03/26 09:45:57;;;;;;;1.80;1.50;;;;;;;39.81;11.05;96568.63;6294068;28;20055;-69
2023/03/26 09:49:35;;;;;;;5.22;1.80;;;;;;;38.24;11.80;96561.44;6282331;28;20045;-69
2023/03/26 09:52:45;;;;;;;2.25;1.70;;;;;;;36.56;12.91;96552.53;6292566;28;20052;-68
2023/03/26 09:55:59;;;;;;;3.08;2.05;;;;;;;34.79;13.79;96545.94;6293223;28;20045;-71
2023/03/26 09:59:18;;;;;;;1.38;1.27;;;;;;;33.61;14.81;96546.66;6293529;28;20053;-70
2023/03/26 10:02:54;;;;;;;3.30;1.90;;;;;;;32.67;15.62;96561.03;6292688;28;20438;-69
2023/03/26 10:05:58;;;;;;;2.55;1.80;;;;;;;31.37;16.45;96556.13;6293068;28;20182;-69
2023/03/26 10:09:05;;;;;;;2.75;1.50;;;;;;;31.35;16.76;96557.38;6292539;28;20052;-69
2023/03/26 10:12:32;;;;;;;1.80;1.45;;;;;;;31.10;16.81;96555.75;6293765;28;20040;-70
2023/03/26 10:15:52;;;;;;;;;;;;;;;31.62;16.25;96558.56;6295263;28;20044;-68
2023/03/26 10:19:18;;;;;;;2.03;1.83;;;;;;;30.84;17.33;96560.59;6298595;28;19920;-69
2023/03/26 10:23:02;;;;;;;2.17;1.60;;;;;;;30.34;17.55;96544.69;6280659;28;20047;-69
2023/03/26 10:26:31;;;;;;;2.20;1.70;;;;;;;29.40;18.62;96552.38;6281082;28;20048;-69
2023/03/26 10:29:53;;;;;;;2.50;1.92;;;;;;;28.55;19.55;96549.44;6298079;28;20498;-69
2023/03/26 10:33:06;;;;;;;1.90;1.73;;;;;;;28.21;19.84;96549.66;6297609;28;20048;-70
2023/03/26 10:36:28;;;;;;;2.17;1.98;;;;;;;27.72;20.37;96551.16;6296379;28;20563;-70
2023/03/26 10:39:59;;;;;;;2.35;1.70;;;;;;;28.82;19.37;96566.28;6297668;28;20510;-69
2023/03/26 10:43:15;;;;;;;4.43;2.00;;;;;;;30.28;18.15;96569.22;6274295;28;20470;-69
2023/03/26 10:46:25;;;;;;;2.53;2.08;;;;;;;31.50;17.26;96571.31;6297917;28;20502;-70
2023/03/26 10:49:48;;;;;;;2.33;1.67;;;;;;;32.08;16.41;96567.63;6298303;28;20147;-70
2023/03/26 10:52:54;;;;;;;2.03;1.80;;;;;;;30.90;17.29;96561.56;6297617;28;20060;-68
2023/03/26 10:56:31;;;;;;;2.95;1.83;;;;;;;29.76;18.63;96561.56;6297414;28;20070;-69
2023/03/26 10:59:36;;;;;;;3.33;2.38;;;;;;;28.64;19.31;96548.94;6280268;28;20040;-70
2023/03/26 11:03:15;;;;;;;3.15;2.30;;;;;;;27.89;20.31;96548.81;6297727;28;20117;-70
2023/03/26 11:06:37;;;;;;;3.78;2.35;;;;;;;27.40;20.66;96546.72;6296412;28;20075;-69
2023/03/26 11:10:13;;;;;;;2.53;1.97;;;;;;;27.38;20.69;96543.44;6295917;28;20082;-70
2023/03/26 11:14:23;;;;;;;3.88;2.30;;;;;;;26.34;21.87;96524.22;6282535;28;20052;-68
2023/03/26 11:17:44;;;;;;;3.05;2.42;;;;;;;25.61;22.73;96525.94;6227206;28;20417;-69
2023/03/26 11:21:13;;;;;;;4.95;2.33;;;;;;;25.20;22.97;96532.19;6296906;28;20052;-68
2023/03/26 11:24:37;;;;;;;4.68;2.45;;;;;;;25.40;22.91;96530.41;6297291;28;20048;-69
2023/03/26 11:27:52;;;;;;;3.83;2.80;;;;;;;25.34;23.21;96531.22;6296507;28;20412;-70
2023/03/26 11:31:00;;;;;;;4.28;2.67;;;;;;;25.49;22.85;96542.69;6296075;28;20139;-70
2023/03/26 11:34:10;;;;;;;3.13;2.50;;;;;;;25.67;22.90;96546.66;6296524;28;20052;-69
2023/03/26 11:37:39;;;;;;;4.90;2.60;;;;;;;25.54;23.19;96559.06;6296732;28;20040;-70
2023/03/26 11:40:49;;;;;;;7.93;6.05;;;;;;;24.86;23.85;96555.38;6296726;28;20038;-69
2023/03/26 11:44:04;;;;;;;3.92;2.72;;;;;;;24.61;24.24;96563.06;6296337;28;20537;-69
2023/03/26 11:47:14;;;;;;;5.03;3.10;;;;;;;24.42;24.32;96569.91;6295924;28;20536;-69
2023/03/26 11:50:40;;;;;;;4.00;2.67;;;;;;;24.13;25.05;96555.56;6295777;28;20048;-69
2023/03/26 11:53:45;;;;;;;3.42;2.85;;;;;;;23.60;25.58;96560.34;6270821;28;20529;-70
2023/03/26 11:57:16;;;;;;;4.15;3.03;;;;;;;22.53;26.74;96562.56;6270991;28;20045;-69
2023/03/26 12:00:26;;;;;;;5.05;2.95;;;;;;;21.30;28.94;96556.13;6269295;28;20394;-70
2023/03/26 12:03:29;;;;;;;4.70;2.88;;;;;;;20.58;29.80;96566.03;6270638;28;20056;-69
2023/03/26 12:06:33;;;;;;;3.60;3.30;;;;;;;20.32;30.29;96572.38;6269143;28;20836;-69
2023/03/26 12:09:47;;;;;;;3.88;3.53;;;;;;;20.31;30.15;96576.06;6271137;28;20049;-69
2023/03/26 12:12:59;;;;;;;5.03;3.33;;;;;;;20.85;29.53;96562.16;6271618;28;20656;-69
2023/03/26 12:16:08;;;;;;;4.03;3.53;;;;;;;20.45;30.07;96560.38;6270871;28;20045;-69
2023/03/26 12:19:19;;;;;;;4.38;3.60;;;;;;;19.82;31.12;96565.38;6271108;28;20457;-69
2023/03/26 12:22:30;;;;;;;4.82;3.63;;;;;;;20.30;30.81;96562.88;6270459;28;20041;-69
2023/03/26 12:25:37;;;;;;;4.90;4.40;;;;;;;20.56;30.20;96568.06;6271015;28;20037;-70
2023/03/26 12:28:50;;;;;;;4.85;3.92;;;;;;;20.56;30.16;96562.72;6270170;28;20052;-70
2023/03/26 12:32:02;;;;;;;4.97;4.07;;;;;;;19.92;31.16;96555.34;6268992;28;20053;-70
2023/03/26 12:35:17;;;;;;;5.93;4.15;;;;;;;19.07;32.61;96559.94;6269153;28;20052;-70
2023/03/26 12:38:32;;;;;;;8.45;5.00;;;;;;;18.24;34.33;96556.91;6270072;28;20399;-69
2023/03/26 12:41:40;;;;;;;6.88;5.07;;;;;;;17.10;36.43;96562.75;6270411;28;20051;-69
2023/03/26 12:44:51;;;;;;;6.65;4.50;;;;;;;16.30;38.00;96572.03;6270126;28;20049;-69
2023/03/26 12:47:56;;;;;;;7.15;4.75;;;;;;;15.40;39.87;96570.47;6270005;28;20041;-69
2023/03/26 12:51:09;;;;;;;6.37;4.90;;;;;;;15.04;40.51;96580.69;6271323;28;20071;-69
2023/03/26 12:54:48;;;;;;;7.63;5.05;;;;;;;14.93;40.77;96579.00;6294612;28;20078;-70
2023/03/26 12:58:15;;;;;;;8.45;5.32;;;;;;;14.77;41.37;96579.47;6294590;28;20032;-69
2023/03/26 13:01:32;;;;;;;9.75;5.78;;;;;;;14.65;42.12;96593.78;6286930;28;20063;-69
2023/03/26 13:05:13;;;;;;;7.68;6.03;;;;;;;14.54;42.25;96596.50;6277049;28;20074;-68
2023/03/26 13:08:19;;;;;;;7.85;5.75;;;;;;;14.34;42.99;96599.00;6294888;28;20102;-68
2023/03/26 13:11:38;;;;;;;7.68;5.10;;;;;;;14.26;43.64;96596.16;6294858;28;20036;-69
2023/03/26 13:14:47;;;;;;;8.57;5.30;;;;;;;14.13;43.64;96606.09;6294371;28;20036;-69
2023/03/26 13:17:57;;;;;;;6.80;6.10;;;;;;;14.07;43.88;96602.16;6294473;28;20412;-69
2023/03/26 13:21:29;;;;;;;6.40;5.27;;;;;;;14.01;43.70;96601.81;6294496;28;20036;-70
2023/03/26 13:24:41;;;;;;;8.90;5.50;;;;;;;14.03;43.99;96599.88;6294572;28;20413;-69
2023/03/26 13:28:02;;;;;;;8.30;5.85;;;;;;;14.01;44.13;96596.53;6294531;28;20032;-70
2023/03/26 13:31:18;;;;;;;6.95;6.18;;;;;;;13.82;44.44;96603.34;6294546;28;20048;-70
2023/03/26 13:34:51;;;;;;;8.70;5.50;;;;;;;13.83;44.60;96607.66;6293181;28;20052;-69
2023/03/26 13:38:17;;;;;;;9.65;5.90;;;;;;;13.93;44.92;96611.25;6284968;28;20048;-70
2023/03/26 13:41:44;;;;;;;6.90;5.57;;;;;;;13.88;44.87;96602.00;6294464;28;20044;-69
2023/03/26 13:44:57;;;;;;;7.85;5.80;;;;;;;13.98;44.86;96602.06;6293406;28;20048;-70
2023/03/26 13:48:04;;;;;;;6.75;5.35;;;;;;;13.83;45.23;96598.91;6293466;28;20403;-69
2023/03/26 13:51:16;;;;;;;8.25;5.78;;;;;;;13.72;45.69;96601.56;6296242;28;20052;-68
2023/03/26 13:54:27;;;;;;;7.72;5.68;;;;;;;13.62;46.25;96606.78;6298548;28;20461;-69
2023/03/26 13:57:40;;;;;;;7.68;5.63;;;;;;;13.31;46.93;96606.63;6298857;28;20040;-69
2023/03/26 14:00:59;;;;;;;5.88;4.90;;;;;;;13.22;47.21;96605.53;6298608;28;20036;-70
2023/03/26 14:04:31;;;;;;;8.65;6.80;;;;;;;13.23;47.64;96601.06;6298296;28;20067;-70
2023/03/26 14:07:40;;;;;;;8.05;5.63;;;;;;;13.06;47.99;96609.50;6291576;28;20561;-70
2023/03/26 14:10:54;;;;;;;7.47;6.50;;;;;;;12.95;48.42;96607.69;6298430;28;20056;-70
2023/03/26 14:14:08;;;;;;;7.75;6.40;;;;;;;12.68;48.96;96621.22;6280138;28;20655;-69
2023/03/26 14:17:25;;;;;;;8.15;6.28;;;;;;;12.40;49.63;96611.97;6297856;28;20040;-69
2023/03/26 14:21:06;;;;;;;8.15;6.47;;;;;;;12.35;49.80;96626.34;6298627;28;20147;-69
2023/03/26 14:24:41;;;;;;;8.57;6.28;;;;;;;12.08;50.46;96626.63;6297994;28;20052;-69
2023/03/26 14:28:10;;;;;;;8.38;6.40;;;;;;;12.20;50.49;96627.53;6297213;28;20202;-70
2023/03/26 14:31:43;;;;;;;8.90;5.95;;;;;;;11.92;51.25;96618.19;6298314;28;20048;-69
2023/03/26 14:34:50;;;;;;;8.35;6.15;;;;;;;11.94;51.42;96626.81;6297959;28;20055;-70
2023/03/26 14:38:45;;;;;;;6.00;5.35;;;;;;;11.91;51.08;96632.31;6298065;28;20110;-70
2023/03/26 14:42:00;;;;;;;8.90;6.45;;;;;;;11.74;51.87;96632.69;6223761;28;20054;-69
2023/03/26 14:45:10;;;;;;;9.50;6.68;;;;;;;11.78;51.70;96642.91;6298258;28;20036;-69
2023/03/26 14:48:23;;;;;;;9.27;6.70;;;;;;;11.60;52.12;96642.44;6297037;28;20055;-70
2023/03/26 14:51:41;;;;;;;8.32;6.70;;;;;;;11.55;52.48;96647.22;6297618;28;20056;-69
2023/03/26 14:54:48;;;;;;;9.02;7.25;;;;;;;11.35;52.70;96653.06;6296995;28;20052;-70
2023/03/26 14:58:00;;;;;;;9.90;6.88;;;;;;;11.13;53.33;96662.50;6297238;28;20064;-70
2023/03/26 15:01:21;;;;;;;11.30;7.20;;;;;;;11.03;53.58;96671.97;6295994;28;20215;-69
2023/03/26 15:04:50;;;;;;;9.02;6.78;;;;;;;10.84;53.69;96674.19;6297043;28;20063;-69
2023/03/26 15:08:47;;;;;;;10.65;6.80;;;;;;;10.62;54.45;96678.31;6297495;28;20037;-70
2023/03/26 15:12:09;;;;;;;11.68;7.05;;;;;;;10.36;54.64;96679.22;6297142;28;20048;-70